sensor_id;sensor_type;location;lat;lon;timestamp;temperature;humidity
43049;DHT22;28673;44.412;11.918;2024-03-17T00:00:20;10.90;99.90
43049;DHT22;28673;44.412;11.918;2024-03-17T00:02:46;11.00;99.90
43049;DHT22;28673;44.412;11.918;2024-03-17T00:05:12;10.90;99.90
43049;DHT22;28673;44.412;11.918;2024-03-17T00:07:39;10.90;99.90
43049;DHT22;28673;44.412;11.918;2024-03-17T00:10:05;10.90;99.90
43049;DHT22;28673;44.412;11.918;2024-03-17T00:12:33;10.80;99.90
43049;DHT22;28673;44.412;11.918;2024-03-17T00:14:59;10.80;99.90
43049;DHT22;28673;44.412;11.918;2024-03-17T00:17:25;10.80;99.90
43049;DHT22;28673;44.412;11.918;2024-03-17T00:19:50;10.70;99.90
43049;DHT22;28673;44.412;11.918;2024-03-17T00:22:16;10.70;99.90
43049;DHT22;28673;44.412;11.918;2024-03-17T00:24:46;10.70;99.90
43049;DHT22;28673;44.412;11.918;2024-03-17T00:27:12;10.70;99.90
43049;DHT22;28673;44.412;11.918;2024-03-17T00:29:39;10.60;99.90
43049;DHT22;28673;44.412;11.918;2024-03-17T00:32:06;10.60;99.90
43049;DHT22;28673;44.412;11.918;2024-03-17T00:34:32;10.60;99.90
43049;DHT22;28673;44.412;11.918;2024-03-17T00:36:58;10.60;99.90
43049;DHT22;28673;44.412;11.918;2024-03-17T00:39:25;10.50;99.90
43049;DHT22;28673;44.412;11.918;2024-03-17T00:41:51;10.50;99.90
43049;DHT22;28673;44.412;11.918;2024-03-17T00:44:16;10.50;99.90
43049;DHT22;28673;44.412;11.918;2024-03-17T00:46:42;10.50;99.90
43049;DHT22;28673;44.412;11.918;2024-03-17T00:49:12;10.50;99.90
43049;DHT22;28673;44.412;11.918;2024-03-17T00:51:38;10.40;99.90
43049;DHT22;28673;44.412;11.918;2024-03-17T00:54:04;10.40;99.90
43049;DHT22;28673;44.412;11.918;2024-03-17T00:56:30;10.40;99.90
43049;DHT22;28673;44.412;11.918;2024-03-17T00:58:56;10.30;99.90
43049;DHT22;28673;44.412;11.918;2024-03-17T01:01:22;10.30;99.90
43049;DHT22;28673;44.412;11.918;2024-03-17T01:03:48;10.30;99.90
43049;DHT22;28673;44.412;11.918;2024-03-17T01:06:14;10.30;99.90
43049;DHT22;28673;44.412;11.918;2024-03-17T01:08:40;10.30;99.90
43049;DHT22;28673;44.412;11.918;2024-03-17T01:11:06;10.30;99.90
43049;DHT22;28673;44.412;11.918;2024-03-17T01:13:35;10.30;99.90
43049;DHT22;28673;44.412;11.918;2024-03-17T01:16:07;10.20;99.90
43049;DHT22;28673;44.412;11.918;2024-03-17T01:18:32;10.20;99.90
43049;DHT22;28673;44.412;11.918;2024-03-17T01:20:59;10.20;99.90
43049;DHT22;28673;44.412;11.918;2024-03-17T01:23:25;10.30;99.90
43049;DHT22;28673;44.412;11.918;2024-03-17T01:25:51;10.20;99.90
43049;DHT22;28673;44.412;11.918;2024-03-17T01:28:17;10.20;99.90
43049;DHT22;28673;44.412;11.918;2024-03-17T01:30:42;10.20;99.90
43049;DHT22;28673;44.412;11.918;2024-03-17T01:33:08;10.20;99.90
43049;DHT22;28673;44.412;11.918;2024-03-17T01:35:35;10.20;99.90
43049;DHT22;28673;44.412;11.918;2024-03-17T01:38:00;10.10;99.90
43049;DHT22;28673;44.412;11.918;2024-03-17T01:40:26;10.10;99.90
43049;DHT22;28673;44.412;11.918;2024-03-17T01:42:53;10.10;99.90
43049;DHT22;28673;44.412;11.918;2024-03-17T01:45:20;10.10;99.90
43049;DHT22;28673;44.412;11.918;2024-03-17T01:47:49;10.10;99.90
43049;DHT22;28673;44.412;11.918;2024-03-17T01:50:15;10.10;99.90
43049;DHT22;28673;44.412;11.918;2024-03-17T01:52:46;10.00;99.90
43049;DHT22;28673;44.412;11.918;2024-03-17T01:55:12;10.00;99.90
43049;DHT22;28673;44.412;11.918;2024-03-17T01:57:38;10.00;99.90
43049;DHT22;28673;44.412;11.918;2024-03-17T02:00:06;10.00;99.90
43049;DHT22;28673;44.412;11.918;2024-03-17T02:02:36;9.90;99.90
43049;DHT22;28673;44.412;11.918;2024-03-17T02:05:02;9.90;99.90
43049;DHT22;28673;44.412;11.918;2024-03-17T02:07:29;9.90;99.90
43049;DHT22;28673;44.412;11.918;2024-03-17T02:09:56;9.90;99.90
43049;DHT22;28673;44.412;11.918;2024-03-17T02:12:23;9.90;99.90
43049;DHT22;28673;44.412;11.918;2024-03-17T02:14:49;9.90;99.90
43049;DHT22;28673;44.412;11.918;2024-03-17T02:17:14;9.90;99.90
43049;DHT22;28673;44.412;11.918;2024-03-17T02:19:40;9.90;99.90
43049;DHT22;28673;44.412;11.918;2024-03-17T02:22:15;9.90;99.90
43049;DHT22;28673;44.412;11.918;2024-03-17T02:24:43;9.80;99.90
43049;DHT22;28673;44.412;11.918;2024-03-17T02:27:08;9.80;99.90
43049;DHT22;28673;44.412;11.918;2024-03-17T02:29:35;9.80;99.90
43049;DHT22;28673;44.412;11.918;2024-03-17T02:32:06;9.80;99.90
43049;DHT22;28673;44.412;11.918;2024-03-17T02:34:35;9.80;99.90
43049;DHT22;28673;44.412;11.918;2024-03-17T02:37:02;9.80;99.90
43049;DHT22;28673;44.412;11.918;2024-03-17T02:39:29;9.70;99.90
43049;DHT22;28673;44.412;11.918;2024-03-17T02:42:03;9.70;99.90
43049;DHT22;28673;44.412;11.918;2024-03-17T02:44:31;9.70;99.90
43049;DHT22;28673;44.412;11.918;2024-03-17T02:46:57;9.70;99.90
43049;DHT22;28673;44.412;11.918;2024-03-17T02:49:24;9.70;99.90
43049;DHT22;28673;44.412;11.918;2024-03-17T02:51:50;9.70;99.90
43049;DHT22;28673;44.412;11.918;2024-03-17T02:54:16;9.60;99.90
43049;DHT22;28673;44.412;11.918;2024-03-17T02:56:42;9.60;99.90
43049;DHT22;28673;44.412;11.918;2024-03-17T02:59:08;9.60;99.90
43049;DHT22;28673;44.412;11.918;2024-03-17T03:01:34;9.60;99.90
43049;DHT22;28673;44.412;11.918;2024-03-17T03:04:00;9.60;99.90
43049;DHT22;28673;44.412;11.918;2024-03-17T03:06:26;9.60;99.90
43049;DHT22;28673;44.412;11.918;2024-03-17T03:08:51;9.60;99.90
43049;DHT22;28673;44.412;11.918;2024-03-17T03:11:17;9.50;99.90
43049;DHT22;28673;44.412;11.918;2024-03-17T03:13:43;9.50;99.90
43049;DHT22;28673;44.412;11.918;2024-03-17T03:16:11;9.50;99.90
43049;DHT22;28673;44.412;11.918;2024-03-17T03:18:38;9.50;99.90
43049;DHT22;28673;44.412;11.918;2024-03-17T03:21:07;9.50;99.90
43049;DHT22;28673;44.412;11.918;2024-03-17T03:23:33;9.50;99.90
43049;DHT22;28673;44.412;11.918;2024-03-17T03:26:00;9.50;99.90
43049;DHT22;28673;44.412;11.918;2024-03-17T03:28:30;9.50;99.90
43049;DHT22;28673;44.412;11.918;2024-03-17T03:30:56;9.50;99.90
43049;DHT22;28673;44.412;11.918;2024-03-17T03:33:22;9.50;99.90
43049;DHT22;28673;44.412;11.918;2024-03-17T03:35:48;9.50;99.90
43049;DHT22;28673;44.412;11.918;2024-03-17T03:38:15;9.50;99.90
43049;DHT22;28673;44.412;11.918;2024-03-17T03:40:41;9.50;99.90
43049;DHT22;28673;44.412;11.918;2024-03-17T03:43:08;9.50;99.90
43049;DHT22;28673;44.412;11.918;2024-03-17T03:45:35;9.50;99.90
43049;DHT22;28673;44.412;11.918;2024-03-17T03:48:01;9.50;99.90
43049;DHT22;28673;44.412;11.918;2024-03-17T03:50:28;9.50;99.90
43049;DHT22;28673;44.412;11.918;2024-03-17T03:52:55;9.50;99.90
43049;DHT22;28673;44.412;11.918;2024-03-17T03:55:21;9.40;99.90
43049;DHT22;28673;44.412;11.918;2024-03-17T03:57:46;9.40;99.90
43049;DHT22;28673;44.412;11.918;2024-03-17T04:00:17;9.40;99.90
43049;DHT22;28673;44.412;11.918;2024-03-17T04:02:48;9.40;99.90
43049;DHT22;28673;44.412;11.918;2024-03-17T04:05:15;9.40;99.90
43049;DHT22;28673;44.412;11.918;2024-03-17T04:07:41;9.40;99.90
43049;DHT22;28673;44.412;11.918;2024-03-17T04:10:09;9.30;99.90
43049;DHT22;28673;44.412;11.918;2024-03-17T04:12:35;9.30;99.90
43049;DHT22;28673;44.412;11.918;2024-03-17T04:15:01;9.30;99.90
43049;DHT22;28673;44.412;11.918;2024-03-17T04:17:27;9.30;99.90
43049;DHT22;28673;44.412;11.918;2024-03-17T04:19:54;9.30;99.90
43049;DHT22;28673;44.412;11.918;2024-03-17T04:22:21;9.30;99.90
43049;DHT22;28673;44.412;11.918;2024-03-17T04:24:51;9.20;99.90
43049;DHT22;28673;44.412;11.918;2024-03-17T04:27:20;9.20;99.90
43049;DHT22;28673;44.412;11.918;2024-03-17T04:29:47;9.20;99.90
43049;DHT22;28673;44.412;11.918;2024-03-17T04:32:13;9.20;99.90
43049;DHT22;28673;44.412;11.918;2024-03-17T04:34:40;9.20;99.90
43049;DHT22;28673;44.412;11.918;2024-03-17T04:37:06;9.20;99.90
43049;DHT22;28673;44.412;11.918;2024-03-17T04:39:31;9.20;99.90
43049;DHT22;28673;44.412;11.918;2024-03-17T04:41:57;9.20;99.90
43049;DHT22;28673;44.412;11.918;2024-03-17T04:44:23;9.20;99.90
43049;DHT22;28673;44.412;11.918;2024-03-17T04:46:49;9.10;99.90
43049;DHT22;28673;44.412;11.918;2024-03-17T04:49:15;9.10;99.90
43049;DHT22;28673;44.412;11.918;2024-03-17T04:51:41;9.10;99.90
43049;DHT22;28673;44.412;11.918;2024-03-17T04:54:06;9.10;99.90
43049;DHT22;28673;44.412;11.918;2024-03-17T04:56:32;9.00;99.90
43049;DHT22;28673;44.412;11.918;2024-03-17T04:58:58;9.00;99.90
43049;DHT22;28673;44.412;11.918;2024-03-17T05:01:25;9.00;99.90
43049;DHT22;28673;44.412;11.918;2024-03-17T05:03:54;8.90;99.90
43049;DHT22;28673;44.412;11.918;2024-03-17T05:06:19;8.90;99.90
43049;DHT22;28673;44.412;11.918;2024-03-17T05:08:45;8.90;99.90
43049;DHT22;28673;44.412;11.918;2024-03-17T05:11:11;8.90;99.90
43049;DHT22;28673;44.412;11.918;2024-03-17T05:13:39;8.80;99.90
43049;DHT22;28673;44.412;11.918;2024-03-17T05:16:05;8.80;99.90
43049;DHT22;28673;44.412;11.918;2024-03-17T05:18:32;8.80;99.90
43049;DHT22;28673;44.412;11.918;2024-03-17T05:21:02;8.80;99.90
43049;DHT22;28673;44.412;11.918;2024-03-17T05:23:31;8.80;99.90
43049;DHT22;28673;44.412;11.918;2024-03-17T05:25:57;8.80;99.90
43049;DHT22;28673;44.412;11.918;2024-03-17T05:28:24;8.80;99.90
43049;DHT22;28673;44.412;11.918;2024-03-17T05:30:50;8.70;99.90
43049;DHT22;28673;44.412;11.918;2024-03-17T05:33:19;8.80;99.90
43049;DHT22;28673;44.412;11.918;2024-03-17T05:35:54;8.80;99.90
43049;DHT22;28673;44.412;11.918;2024-03-17T05:38:21;8.80;99.90
43049;DHT22;28673;44.412;11.918;2024-03-17T05:43:19;8.80;99.90
43049;DHT22;28673;44.412;11.918;2024-03-17T05:45:45;8.80;99.90
43049;DHT22;28673;44.412;11.918;2024-03-17T05:48:11;8.80;99.90
43049;DHT22;28673;44.412;11.918;2024-03-17T05:50:36;8.80;99.90
43049;DHT22;28673;44.412;11.918;2024-03-17T05:53:02;8.80;99.90
43049;DHT22;28673;44.412;11.918;2024-03-17T05:55:28;8.80;99.90
43049;DHT22;28673;44.412;11.918;2024-03-17T05:57:54;8.90;99.90
43049;DHT22;28673;44.412;11.918;2024-03-17T06:00:20;8.90;99.90
43049;DHT22;28673;44.412;11.918;2024-03-17T06:02:46;8.90;99.90
43049;DHT22;28673;44.412;11.918;2024-03-17T06:05:12;9.00;99.90
43049;DHT22;28673;44.412;11.918;2024-03-17T06:07:40;9.00;99.90
43049;DHT22;28673;44.412;11.918;2024-03-17T06:10:06;9.00;99.90
43049;DHT22;28673;44.412;11.918;2024-03-17T06:12:32;9.00;99.90
43049;DHT22;28673;44.412;11.918;2024-03-17T06:14:59;9.10;99.90
43049;DHT22;28673;44.412;11.918;2024-03-17T06:17:25;9.10;99.90
43049;DHT22;28673;44.412;11.918;2024-03-17T06:19:52;9.20;99.90
43049;DHT22;28673;44.412;11.918;2024-03-17T06:22:17;9.20;99.90
43049;DHT22;28673;44.412;11.918;2024-03-17T06:24:43;9.30;99.90
43049;DHT22;28673;44.412;11.918;2024-03-17T06:27:09;9.30;99.90
43049;DHT22;28673;44.412;11.918;2024-03-17T06:29:35;9.40;99.90
43049;DHT22;28673;44.412;11.918;2024-03-17T06:32:01;9.40;99.90
43049;DHT22;28673;44.412;11.918;2024-03-17T06:34:27;9.50;99.90
43049;DHT22;28673;44.412;11.918;2024-03-17T06:36:53;9.60;99.90
43049;DHT22;28673;44.412;11.918;2024-03-17T06:39:19;9.60;99.90
43049;DHT22;28673;44.412;11.918;2024-03-17T06:41:46;9.60;99.90
43049;DHT22;28673;44.412;11.918;2024-03-17T06:44:12;9.70;99.90
43049;DHT22;28673;44.412;11.918;2024-03-17T06:46:38;9.70;99.90
43049;DHT22;28673;44.412;11.918;2024-03-17T06:49:04;9.80;99.90
43049;DHT22;28673;44.412;11.918;2024-03-17T06:51:30;9.80;99.90
43049;DHT22;28673;44.412;11.918;2024-03-17T06:53:55;9.90;99.90
43049;DHT22;28673;44.412;11.918;2024-03-17T06:56:22;10.00;99.90
43049;DHT22;28673;44.412;11.918;2024-03-17T06:58:48;10.00;99.90
43049;DHT22;28673;44.412;11.918;2024-03-17T07:01:13;10.10;99.90
43049;DHT22;28673;44.412;11.918;2024-03-17T07:03:39;10.10;99.90
43049;DHT22;28673;44.412;11.918;2024-03-17T07:06:05;10.20;99.90
43049;DHT22;28673;44.412;11.918;2024-03-17T07:08:33;10.20;99.90
43049;DHT22;28673;44.412;11.918;2024-03-17T07:11:02;10.30;99.90
43049;DHT22;28673;44.412;11.918;2024-03-17T07:13:38;10.40;99.90
43049;DHT22;28673;44.412;11.918;2024-03-17T07:16:08;10.50;99.90
43049;DHT22;28673;44.412;11.918;2024-03-17T07:18:34;10.50;99.90
43049;DHT22;28673;44.412;11.918;2024-03-17T07:21:04;10.60;99.90
43049;DHT22;28673;44.412;11.918;2024-03-17T07:23:30;10.70;99.90
43049;DHT22;28673;44.412;11.918;2024-03-17T07:25:58;10.80;99.90
43049;DHT22;28673;44.412;11.918;2024-03-17T07:28:24;10.90;99.90
43049;DHT22;28673;44.412;11.918;2024-03-17T07:30:55;11.10;99.90
43049;DHT22;28673;44.412;11.918;2024-03-17T07:33:22;11.20;99.90
43049;DHT22;28673;44.412;11.918;2024-03-17T07:35:51;11.30;99.90
43049;DHT22;28673;44.412;11.918;2024-03-17T07:38:18;11.40;99.90
43049;DHT22;28673;44.412;11.918;2024-03-17T07:40:45;11.50;99.90
43049;DHT22;28673;44.412;11.918;2024-03-17T07:43:11;11.60;99.90
43049;DHT22;28673;44.412;11.918;2024-03-17T07:45:37;11.70;99.90
43049;DHT22;28673;44.412;11.918;2024-03-17T07:48:03;11.90;99.90
43049;DHT22;28673;44.412;11.918;2024-03-17T07:50:29;12.00;99.90
43049;DHT22;28673;44.412;11.918;2024-03-17T07:52:55;12.10;99.90
43049;DHT22;28673;44.412;11.918;2024-03-17T07:55:21;12.10;99.90
43049;DHT22;28673;44.412;11.918;2024-03-17T07:57:46;12.30;99.90
43049;DHT22;28673;44.412;11.918;2024-03-17T08:00:12;12.30;99.90
43049;DHT22;28673;44.412;11.918;2024-03-17T08:02:47;12.40;99.90
43049;DHT22;28673;44.412;11.918;2024-03-17T08:05:14;12.50;99.90
43049;DHT22;28673;44.412;11.918;2024-03-17T08:07:40;12.70;99.90
43049;DHT22;28673;44.412;11.918;2024-03-17T08:10:08;12.80;99.90
43049;DHT22;28673;44.412;11.918;2024-03-17T08:12:34;12.90;99.90
43049;DHT22;28673;44.412;11.918;2024-03-17T08:14:59;13.00;99.90
43049;DHT22;28673;44.412;11.918;2024-03-17T08:17:25;13.10;99.90
43049;DHT22;28673;44.412;11.918;2024-03-17T08:19:52;13.20;99.90
43049;DHT22;28673;44.412;11.918;2024-03-17T08:22:19;13.30;99.90
43049;DHT22;28673;44.412;11.918;2024-03-17T08:24:45;13.40;99.90
43049;DHT22;28673;44.412;11.918;2024-03-17T08:27:10;13.60;99.90
43049;DHT22;28673;44.412;11.918;2024-03-17T08:29:39;13.70;99.90
43049;DHT22;28673;44.412;11.918;2024-03-17T08:32:05;13.80;99.90
43049;DHT22;28673;44.412;11.918;2024-03-17T08:34:32;13.90;99.90
43049;DHT22;28673;44.412;11.918;2024-03-17T08:36:58;14.00;99.90
43049;DHT22;28673;44.412;11.918;2024-03-17T08:39:43;14.20;99.90
43049;DHT22;28673;44.412;11.918;2024-03-17T08:42:09;14.30;99.90
43049;DHT22;28673;44.412;11.918;2024-03-17T08:44:43;14.50;99.90
43049;DHT22;28673;44.412;11.918;2024-03-17T08:47:11;14.60;99.90
43049;DHT22;28673;44.412;11.918;2024-03-17T08:49:36;14.80;99.90
43049;DHT22;28673;44.412;11.918;2024-03-17T08:52:08;14.90;99.90
43049;DHT22;28673;44.412;11.918;2024-03-17T08:54:34;15.00;99.90
43049;DHT22;28673;44.412;11.918;2024-03-17T08:56:59;15.20;99.90
43049;DHT22;28673;44.412;11.918;2024-03-17T08:59:41;15.30;99.90
43049;DHT22;28673;44.412;11.918;2024-03-17T09:02:11;15.50;99.90
43049;DHT22;28673;44.412;11.918;2024-03-17T09:04:38;15.70;99.90
43049;DHT22;28673;44.412;11.918;2024-03-17T09:07:04;15.90;99.90
43049;DHT22;28673;44.412;11.918;2024-03-17T09:09:30;16.10;99.90
43049;DHT22;28673;44.412;11.918;2024-03-17T09:11:55;16.30;99.90
43049;DHT22;28673;44.412;11.918;2024-03-17T09:14:21;16.60;99.90
43049;DHT22;28673;44.412;11.918;2024-03-17T09:16:48;17.00;99.90
43049;DHT22;28673;44.412;11.918;2024-03-17T09:19:14;17.30;99.90
43049;DHT22;28673;44.412;11.918;2024-03-17T09:21:39;17.60;99.90
43049;DHT22;28673;44.412;11.918;2024-03-17T09:24:06;17.90;99.90
43049;DHT22;28673;44.412;11.918;2024-03-17T09:26:35;18.10;99.90
43049;DHT22;28673;44.412;11.918;2024-03-17T09:29:01;18.40;99.90
43049;DHT22;28673;44.412;11.918;2024-03-17T09:31:28;18.80;99.90
43049;DHT22;28673;44.412;11.918;2024-03-17T09:33:56;19.10;99.90
43049;DHT22;28673;44.412;11.918;2024-03-17T09:36:22;19.30;99.90
43049;DHT22;28673;44.412;11.918;2024-03-17T09:38:47;19.70;99.90
43049;DHT22;28673;44.412;11.918;2024-03-17T09:41:21;20.00;99.90
43049;DHT22;28673;44.412;11.918;2024-03-17T09:43:48;20.30;99.90
43049;DHT22;28673;44.412;11.918;2024-03-17T09:46:15;20.60;99.90
43049;DHT22;28673;44.412;11.918;2024-03-17T09:48:53;20.90;99.90
43049;DHT22;28673;44.412;11.918;2024-03-17T09:51:44;21.10;99.90
43049;DHT22;28673;44.412;11.918;2024-03-17T09:54:19;21.40;99.90
43049;DHT22;28673;44.412;11.918;2024-03-17T09:57:14;21.60;99.90
43049;DHT22;28673;44.412;11.918;2024-03-17T10:00:23;21.70;99.90
43049;DHT22;28673;44.412;11.918;2024-03-17T10:03:00;21.90;99.90
43049;DHT22;28673;44.412;11.918;2024-03-17T10:05:25;21.90;99.90
43049;DHT22;28673;44.412;11.918;2024-03-17T10:07:52;22.00;99.90
43049;DHT22;28673;44.412;11.918;2024-03-17T10:10:20;22.10;99.90
43049;DHT22;28673;44.412;11.918;2024-03-17T10:12:50;22.10;99.90
43049;DHT22;28673;44.412;11.918;2024-03-17T10:15:17;22.10;99.90
43049;DHT22;28673;44.412;11.918;2024-03-17T10:17:44;22.10;99.90
43049;DHT22;28673;44.412;11.918;2024-03-17T10:20:18;22.10;99.90
43049;DHT22;28673;44.412;11.918;2024-03-17T10:23:20;22.00;99.90
43049;DHT22;28673;44.412;11.918;2024-03-17T10:25:46;22.10;99.90
43049;DHT22;28673;44.412;11.918;2024-03-17T10:28:16;22.10;99.90
43049;DHT22;28673;44.412;11.918;2024-03-17T10:30:57;22.20;99.90
43049;DHT22;28673;44.412;11.918;2024-03-17T10:33:24;22.30;99.60
43049;DHT22;28673;44.412;11.918;2024-03-17T10:36:01;22.40;99.90
43049;DHT22;28673;44.412;11.918;2024-03-17T10:38:31;22.50;99.80
43049;DHT22;28673;44.412;11.918;2024-03-17T10:41:22;22.70;99.90
43049;DHT22;28673;44.412;11.918;2024-03-17T10:44:32;22.90;98.90
43049;DHT22;28673;44.412;11.918;2024-03-17T10:47:05;23.10;98.70
43049;DHT22;28673;44.412;11.918;2024-03-17T10:49:55;23.10;98.70
43049;DHT22;28673;44.412;11.918;2024-03-17T10:52:31;23.40;98.10
43049;DHT22;28673;44.412;11.918;2024-03-17T10:55:05;23.70;98.00
43049;DHT22;28673;44.412;11.918;2024-03-17T11:00:05;23.70;97.40
43049;DHT22;28673;44.412;11.918;2024-03-17T11:02:34;23.80;97.30
43049;DHT22;28673;44.412;11.918;2024-03-17T11:05:26;24.00;97.00
43049;DHT22;28673;44.412;11.918;2024-03-17T11:07:57;24.40;96.00
43049;DHT22;28673;44.412;11.918;2024-03-17T11:10:27;24.70;95.70
43049;DHT22;28673;44.412;11.918;2024-03-17T11:12:55;24.90;95.70
43049;DHT22;28673;44.412;11.918;2024-03-17T11:18:25;24.70;95.10
43049;DHT22;28673;44.412;11.918;2024-03-17T11:23:42;24.70;94.50
43049;DHT22;28673;44.412;11.918;2024-03-17T11:26:08;24.80;95.00
43049;DHT22;28673;44.412;11.918;2024-03-17T11:31:31;25.10;94.00
43049;DHT22;28673;44.412;11.918;2024-03-17T11:33:57;25.30;93.00
43049;DHT22;28673;44.412;11.918;2024-03-17T11:41:40;25.90;93.30
43049;DHT22;28673;44.412;11.918;2024-03-17T11:46:55;25.80;92.60
43049;DHT22;28673;44.412;11.918;2024-03-17T11:52:01;25.50;92.90
43049;DHT22;28673;44.412;11.918;2024-03-17T11:54:32;25.60;93.10
43049;DHT22;28673;44.412;11.918;2024-03-17T11:57:02;25.50;92.60
43049;DHT22;28673;44.412;11.918;2024-03-17T11:59:31;25.40;93.10
43049;DHT22;28673;44.412;11.918;2024-03-17T12:01:58;25.40;93.10
43049;DHT22;28673;44.412;11.918;2024-03-17T12:04:24;25.40;93.40
43049;DHT22;28673;44.412;11.918;2024-03-17T12:06:52;25.60;93.30
43049;DHT22;28673;44.412;11.918;2024-03-17T12:09:24;25.70;93.20
43049;DHT22;28673;44.412;11.918;2024-03-17T12:11:58;25.60;93.00
43049;DHT22;28673;44.412;11.918;2024-03-17T12:14:24;25.40;92.80
43049;DHT22;28673;44.412;11.918;2024-03-17T12:16:52;25.30;93.00
43049;DHT22;28673;44.412;11.918;2024-03-17T12:19:19;25.30;92.60
43049;DHT22;28673;44.412;11.918;2024-03-17T12:21:57;25.10;92.90
43049;DHT22;28673;44.412;11.918;2024-03-17T12:24:28;25.00;92.60
43049;DHT22;28673;44.412;11.918;2024-03-17T12:26:55;24.90;92.50
43049;DHT22;28673;44.412;11.918;2024-03-17T12:29:34;24.80;92.60
43049;DHT22;28673;44.412;11.918;2024-03-17T12:32:25;24.60;92.80
43049;DHT22;28673;44.412;11.918;2024-03-17T12:34:52;24.80;92.40
43049;DHT22;28673;44.412;11.918;2024-03-17T12:37:23;24.80;92.90
43049;DHT22;28673;44.412;11.918;2024-03-17T12:39:51;24.70;91.90
43049;DHT22;28673;44.412;11.918;2024-03-17T12:42:23;24.50;92.60
43049;DHT22;28673;44.412;11.918;2024-03-17T12:44:51;24.60;92.90
43049;DHT22;28673;44.412;11.918;2024-03-17T12:47:18;24.70;92.60
43049;DHT22;28673;44.412;11.918;2024-03-17T12:49:51;24.70;93.00
43049;DHT22;28673;44.412;11.918;2024-03-17T12:52:29;24.70;92.60
43049;DHT22;28673;44.412;11.918;2024-03-17T12:55:07;24.70;92.70
43049;DHT22;28673;44.412;11.918;2024-03-17T12:58:05;24.50;92.00
43049;DHT22;28673;44.412;11.918;2024-03-17T13:01:05;24.20;92.40
43049;DHT22;28673;44.412;11.918;2024-03-17T13:03:35;24.00;92.30
43049;DHT22;28673;44.412;11.918;2024-03-17T13:06:03;24.00;93.20
43049;DHT22;28673;44.412;11.918;2024-03-17T13:08:31;24.00;93.50
43049;DHT22;28673;44.412;11.918;2024-03-17T13:10:58;24.20;93.50
43049;DHT22;28673;44.412;11.918;2024-03-17T13:13:24;24.40;93.30
43049;DHT22;28673;44.412;11.918;2024-03-17T13:15:50;24.60;93.00
43049;DHT22;28673;44.412;11.918;2024-03-17T13:18:18;24.50;92.60
43049;DHT22;28673;44.412;11.918;2024-03-17T13:20:44;24.40;92.50
43049;DHT22;28673;44.412;11.918;2024-03-17T13:23:11;24.30;91.70
43049;DHT22;28673;44.412;11.918;2024-03-17T13:25:37;24.20;92.30
43049;DHT22;28673;44.412;11.918;2024-03-17T13:28:05;24.10;92.60
43049;DHT22;28673;44.412;11.918;2024-03-17T13:30:33;24.10;92.90
43049;DHT22;28673;44.412;11.918;2024-03-17T13:33:02;24.00;92.80
43049;DHT22;28673;44.412;11.918;2024-03-17T13:35:34;24.00;93.10
43049;DHT22;28673;44.412;11.918;2024-03-17T13:38:00;24.20;93.40
43049;DHT22;28673;44.412;11.918;2024-03-17T13:40:28;24.30;92.90
43049;DHT22;28673;44.412;11.918;2024-03-17T13:42:55;24.20;92.80
43049;DHT22;28673;44.412;11.918;2024-03-17T13:45:23;24.40;93.10
43049;DHT22;28673;44.412;11.918;2024-03-17T13:47:58;24.50;93.20
43049;DHT22;28673;44.412;11.918;2024-03-17T13:50:25;24.50;93.30
43049;DHT22;28673;44.412;11.918;2024-03-17T13:52:51;24.60;93.30
43049;DHT22;28673;44.412;11.918;2024-03-17T13:55:19;24.50;93.40
43049;DHT22;28673;44.412;11.918;2024-03-17T13:57:50;24.30;93.60
43049;DHT22;28673;44.412;11.918;2024-03-17T14:00:17;24.40;93.90
43049;DHT22;28673;44.412;11.918;2024-03-17T14:02:47;24.30;93.80
43049;DHT22;28673;44.412;11.918;2024-03-17T14:05:15;24.30;93.70
43049;DHT22;28673;44.412;11.918;2024-03-17T14:07:41;24.10;93.60
43049;DHT22;28673;44.412;11.918;2024-03-17T14:10:09;23.90;94.30
43049;DHT22;28673;44.412;11.918;2024-03-17T14:12:35;23.60;94.10
43049;DHT22;28673;44.412;11.918;2024-03-17T14:15:05;23.40;94.50
43049;DHT22;28673;44.412;11.918;2024-03-17T14:17:31;23.20;94.60
43049;DHT22;28673;44.412;11.918;2024-03-17T14:19:58;23.00;94.70
43049;DHT22;28673;44.412;11.918;2024-03-17T14:22:24;22.80;95.00
43049;DHT22;28673;44.412;11.918;2024-03-17T14:24:50;22.70;95.20
43049;DHT22;28673;44.412;11.918;2024-03-17T14:27:16;22.70;95.20
43049;DHT22;28673;44.412;11.918;2024-03-17T14:29:45;22.50;95.40
43049;DHT22;28673;44.412;11.918;2024-03-17T14:32:11;22.40;95.60
43049;DHT22;28673;44.412;11.918;2024-03-17T14:34:39;22.20;95.60
43049;DHT22;28673;44.412;11.918;2024-03-17T14:37:05;22.00;95.80
43049;DHT22;28673;44.412;11.918;2024-03-17T14:39:31;21.90;95.80
43049;DHT22;28673;44.412;11.918;2024-03-17T14:41:59;21.70;96.10
43049;DHT22;28673;44.412;11.918;2024-03-17T14:44:25;21.50;96.00
43049;DHT22;28673;44.412;11.918;2024-03-17T14:46:51;21.40;96.30
43049;DHT22;28673;44.412;11.918;2024-03-17T14:49:17;21.20;96.40
43049;DHT22;28673;44.412;11.918;2024-03-17T14:51:44;21.00;96.60
43049;DHT22;28673;44.412;11.918;2024-03-17T14:54:10;20.90;96.60
43049;DHT22;28673;44.412;11.918;2024-03-17T14:56:38;20.90;96.90
43049;DHT22;28673;44.412;11.918;2024-03-17T14:59:06;20.70;96.50
43049;DHT22;28673;44.412;11.918;2024-03-17T15:01:31;20.50;96.60
43049;DHT22;28673;44.412;11.918;2024-03-17T15:04:00;20.50;96.70
43049;DHT22;28673;44.412;11.918;2024-03-17T15:06:26;20.30;96.90
43049;DHT22;28673;44.412;11.918;2024-03-17T15:08:53;20.30;96.80
43049;DHT22;28673;44.412;11.918;2024-03-17T15:11:18;20.20;96.90
43049;DHT22;28673;44.412;11.918;2024-03-17T15:13:44;20.10;97.10
43049;DHT22;28673;44.412;11.918;2024-03-17T15:16:11;20.00;97.10
43049;DHT22;28673;44.412;11.918;2024-03-17T15:18:38;19.90;97.50
43049;DHT22;28673;44.412;11.918;2024-03-17T15:21:04;19.70;97.60
43049;DHT22;28673;44.412;11.918;2024-03-17T15:23:33;19.70;97.80
43049;DHT22;28673;44.412;11.918;2024-03-17T15:26:03;19.60;98.10
43049;DHT22;28673;44.412;11.918;2024-03-17T15:28:41;19.50;98.10
43049;DHT22;28673;44.412;11.918;2024-03-17T15:31:08;19.40;98.50
43049;DHT22;28673;44.412;11.918;2024-03-17T15:33:35;19.30;98.60
43049;DHT22;28673;44.412;11.918;2024-03-17T15:36:05;19.20;98.80
43049;DHT22;28673;44.412;11.918;2024-03-17T15:38:32;19.20;99.00
43049;DHT22;28673;44.412;11.918;2024-03-17T15:41:06;19.10;99.20
43049;DHT22;28673;44.412;11.918;2024-03-17T15:43:36;19.10;99.30
43049;DHT22;28673;44.412;11.918;2024-03-17T15:46:18;19.00;99.60
43049;DHT22;28673;44.412;11.918;2024-03-17T15:48:44;18.90;99.60
43049;DHT22;28673;44.412;11.918;2024-03-17T15:51:11;18.80;99.70